sensor_id;sensor_type;location;lat;lon;timestamp;temperature;humidity
41310;DHT22;27057;51.438;-0.010;2023-11-21T00:00:01;11.40;99.90
41310;DHT22;27057;51.438;-0.010;2023-11-21T00:02:39;11.40;99.90
41310;DHT22;27057;51.438;-0.010;2023-11-21T00:05:10;11.40;99.90
41310;DHT22;27057;51.438;-0.010;2023-11-21T00:07:38;11.40;99.90
41310;DHT22;27057;51.438;-0.010;2023-11-21T00:10:06;11.40;99.90
41310;DHT22;27057;51.438;-0.010;2023-11-21T00:12:36;11.40;99.90
41310;DHT22;27057;51.438;-0.010;2023-11-21T00:15:04;11.40;99.90
41310;DHT22;27057;51.438;-0.010;2023-11-21T00:17:41;11.40;99.90
41310;DHT22;27057;51.438;-0.010;2023-11-21T00:20:10;11.40;99.90
41310;DHT22;27057;51.438;-0.010;2023-11-21T00:22:40;11.40;99.90
41310;DHT22;27057;51.438;-0.010;2023-11-21T00:25:08;11.50;99.90
41310;DHT22;27057;51.438;-0.010;2023-11-21T00:27:36;11.50;99.90
41310;DHT22;27057;51.438;-0.010;2023-11-21T00:30:04;11.50;99.90
41310;DHT22;27057;51.438;-0.010;2023-11-21T00:32:34;11.40;99.90
41310;DHT22;27057;51.438;-0.010;2023-11-21T00:35:03;11.50;99.90
41310;DHT22;27057;51.438;-0.010;2023-11-21T00:37:30;11.40;99.90
41310;DHT22;27057;51.438;-0.010;2023-11-21T00:39:59;11.50;99.90
41310;DHT22;27057;51.438;-0.010;2023-11-21T00:42:27;11.40;99.90
41310;DHT22;27057;51.438;-0.010;2023-11-21T00:44:55;11.40;99.90
41310;DHT22;27057;51.438;-0.010;2023-11-21T00:47:22;11.40;99.90
41310;DHT22;27057;51.438;-0.010;2023-11-21T00:49:50;11.40;99.90
41310;DHT22;27057;51.438;-0.010;2023-11-21T00:52:17;11.40;99.90
41310;DHT22;27057;51.438;-0.010;2023-11-21T00:54:46;11.40;99.90
41310;DHT22;27057;51.438;-0.010;2023-11-21T00:57:15;11.40;99.90
41310;DHT22;27057;51.438;-0.010;2023-11-21T00:59:42;11.40;99.90
41310;DHT22;27057;51.438;-0.010;2023-11-21T01:02:10;11.40;99.90
41310;DHT22;27057;51.438;-0.010;2023-11-21T01:04:38;11.40;99.90
41310;DHT22;27057;51.438;-0.010;2023-11-21T01:07:05;11.40;99.90
41310;DHT22;27057;51.438;-0.010;2023-11-21T01:09:33;11.40;99.90
41310;DHT22;27057;51.438;-0.010;2023-11-21T01:12:01;11.40;99.90
41310;DHT22;27057;51.438;-0.010;2023-11-21T01:14:28;11.40;99.90
41310;DHT22;27057;51.438;-0.010;2023-11-21T01:16:57;11.50;99.90
41310;DHT22;27057;51.438;-0.010;2023-11-21T01:19:25;11.40;99.90
41310;DHT22;27057;51.438;-0.010;2023-11-21T01:21:52;11.40;99.90
41310;DHT22;27057;51.438;-0.010;2023-11-21T01:24:20;11.40;99.90
41310;DHT22;27057;51.438;-0.010;2023-11-21T01:26:47;11.40;99.90
41310;DHT22;27057;51.438;-0.010;2023-11-21T01:29:15;11.40;99.90
41310;DHT22;27057;51.438;-0.010;2023-11-21T01:31:42;11.40;99.90
41310;DHT22;27057;51.438;-0.010;2023-11-21T01:34:11;11.30;99.90
41310;DHT22;27057;51.438;-0.010;2023-11-21T01:36:38;11.40;99.90
41310;DHT22;27057;51.438;-0.010;2023-11-21T01:39:05;11.40;99.90
41310;DHT22;27057;51.438;-0.010;2023-11-21T01:41:35;11.40;99.90
41310;DHT22;27057;51.438;-0.010;2023-11-21T01:44:04;11.40;99.90
41310;DHT22;27057;51.438;-0.010;2023-11-21T01:46:35;11.40;99.90
41310;DHT22;27057;51.438;-0.010;2023-11-21T01:49:03;11.40;99.90
41310;DHT22;27057;51.438;-0.010;2023-11-21T01:51:31;11.40;99.90
41310;DHT22;27057;51.438;-0.010;2023-11-21T01:53:58;11.40;99.90
41310;DHT22;27057;51.438;-0.010;2023-11-21T01:56:28;11.40;99.90
41310;DHT22;27057;51.438;-0.010;2023-11-21T01:58:55;11.40;99.90
41310;DHT22;27057;51.438;-0.010;2023-11-21T02:01:24;11.40;99.90
41310;DHT22;27057;51.438;-0.010;2023-11-21T02:03:53;11.40;99.90
41310;DHT22;27057;51.438;-0.010;2023-11-21T02:06:20;11.40;99.90
41310;DHT22;27057;51.438;-0.010;2023-11-21T02:08:49;11.40;99.90
41310;DHT22;27057;51.438;-0.010;2023-11-21T02:11:17;11.50;99.90
41310;DHT22;27057;51.438;-0.010;2023-11-21T02:13:46;11.50;99.90
41310;DHT22;27057;51.438;-0.010;2023-11-21T02:16:17;11.50;99.90
41310;DHT22;27057;51.438;-0.010;2023-11-21T02:18:44;11.50;99.90
41310;DHT22;27057;51.438;-0.010;2023-11-21T02:21:12;11.60;99.90
41310;DHT22;27057;51.438;-0.010;2023-11-21T02:23:39;11.60;99.90
41310;DHT22;27057;51.438;-0.010;2023-11-21T02:26:11;11.50;99.90
41310;DHT22;27057;51.438;-0.010;2023-11-21T02:28:38;11.60;99.90
41310;DHT22;27057;51.438;-0.010;2023-11-21T02:31:06;11.60;99.90
41310;DHT22;27057;51.438;-0.010;2023-11-21T02:33:35;11.60;99.90
41310;DHT22;27057;51.438;-0.010;2023-11-21T02:36:02;11.60;99.90
41310;DHT22;27057;51.438;-0.010;2023-11-21T02:38:30;11.60;99.90
41310;DHT22;27057;51.438;-0.010;2023-11-21T02:40:57;11.60;99.90
41310;DHT22;27057;51.438;-0.010;2023-11-21T02:43:27;11.50;99.90
41310;DHT22;27057;51.438;-0.010;2023-11-21T02:45:55;11.40;99.90
41310;DHT22;27057;51.438;-0.010;2023-11-21T02:48:22;11.40;99.90
41310;DHT22;27057;51.438;-0.010;2023-11-21T02:51:06;11.30;99.90
41310;DHT22;27057;51.438;-0.010;2023-11-21T02:53:34;11.30;99.90
41310;DHT22;27057;51.438;-0.010;2023-11-21T02:56:02;11.30;99.90
41310;DHT22;27057;51.438;-0.010;2023-11-21T02:58:30;11.20;99.90
41310;DHT22;27057;51.438;-0.010;2023-11-21T03:00:57;11.20;99.90
41310;DHT22;27057;51.438;-0.010;2023-11-21T03:03:25;11.20;99.90
41310;DHT22;27057;51.438;-0.010;2023-11-21T03:05:56;11.20;99.90
41310;DHT22;27057;51.438;-0.010;2023-11-21T03:08:24;11.20;99.90
41310;DHT22;27057;51.438;-0.010;2023-11-21T03:10:51;11.10;99.90
41310;DHT22;27057;51.438;-0.010;2023-11-21T03:13:19;11.10;99.90
41310;DHT22;27057;51.438;-0.010;2023-11-21T03:15:46;11.10;99.90
41310;DHT22;27057;51.438;-0.010;2023-11-21T03:18:14;11.10;99.90
41310;DHT22;27057;51.438;-0.010;2023-11-21T03:20:43;11.10;99.90
41310;DHT22;27057;51.438;-0.010;2023-11-21T03:23:13;11.10;99.90
41310;DHT22;27057;51.438;-0.010;2023-11-21T03:25:41;11.10;99.90
41310;DHT22;27057;51.438;-0.010;2023-11-21T03:28:09;11.10;99.90
41310;DHT22;27057;51.438;-0.010;2023-11-21T03:30:36;11.10;99.90
41310;DHT22;27057;51.438;-0.010;2023-11-21T03:33:04;11.10;99.90
41310;DHT22;27057;51.438;-0.010;2023-11-21T03:35:31;11.20;99.90
41310;DHT22;27057;51.438;-0.010;2023-11-21T03:37:59;11.10;99.90
41310;DHT22;27057;51.438;-0.010;2023-11-21T03:40:29;11.10;99.90
41310;DHT22;27057;51.438;-0.010;2023-11-21T03:42:56;11.10;99.90
41310;DHT22;27057;51.438;-0.010;2023-11-21T03:45:24;11.10;99.90
41310;DHT22;27057;51.438;-0.010;2023-11-21T03:47:52;11.10;99.90
41310;DHT22;27057;51.438;-0.010;2023-11-21T03:50:19;11.10;99.90
41310;DHT22;27057;51.438;-0.010;2023-11-21T03:52:46;11.90;99.90
41310;DHT22;27057;51.438;-0.010;2023-11-21T03:55:14;11.10;99.90
41310;DHT22;27057;51.438;-0.010;2023-11-21T03:57:42;11.10;99.90
41310;DHT22;27057;51.438;-0.010;2023-11-21T04:00:10;11.10;99.90
41310;DHT22;27057;51.438;-0.010;2023-11-21T04:02:38;11.10;99.90
41310;DHT22;27057;51.438;-0.010;2023-11-21T04:05:07;11.20;99.90
41310;DHT22;27057;51.438;-0.010;2023-11-21T04:07:35;11.10;99.90
41310;DHT22;27057;51.438;-0.010;2023-11-21T04:10:06;11.10;99.90
41310;DHT22;27057;51.438;-0.010;2023-11-21T04:12:36;11.10;99.90
41310;DHT22;27057;51.438;-0.010;2023-11-21T04:15:04;11.00;99.90
41310;DHT22;27057;51.438;-0.010;2023-11-21T04:17:32;11.10;99.90
41310;DHT22;27057;51.438;-0.010;2023-11-21T04:19:59;11.10;99.90
41310;DHT22;27057;51.438;-0.010;2023-11-21T04:22:26;11.10;99.90
41310;DHT22;27057;51.438;-0.010;2023-11-21T04:24:54;11.10;99.90
41310;DHT22;27057;51.438;-0.010;2023-11-21T04:27:23;11.10;99.90
41310;DHT22;27057;51.438;-0.010;2023-11-21T04:29:50;11.30;99.90
41310;DHT22;27057;51.438;-0.010;2023-11-21T04:32:18;11.90;99.90
41310;DHT22;27057;51.438;-0.010;2023-11-21T04:34:45;11.10;99.90
41310;DHT22;27057;51.438;-0.010;2023-11-21T04:37:13;10.80;99.90
41310;DHT22;27057;51.438;-0.010;2023-11-21T04:39:40;11.10;99.90
41310;DHT22;27057;51.438;-0.010;2023-11-21T04:42:08;11.10;99.90
41310;DHT22;27057;51.438;-0.010;2023-11-21T04:44:35;11.10;99.90
41310;DHT22;27057;51.438;-0.010;2023-11-21T04:47:03;11.10;99.90
41310;DHT22;27057;51.438;-0.010;2023-11-21T04:49:31;11.10;99.90
41310;DHT22;27057;51.438;-0.010;2023-11-21T04:51:59;11.10;99.90
41310;DHT22;27057;51.438;-0.010;2023-11-21T04:54:27;11.10;99.90
41310;DHT22;27057;51.438;-0.010;2023-11-21T04:56:55;11.10;99.90
41310;DHT22;27057;51.438;-0.010;2023-11-21T04:59:22;11.10;99.90
41310;DHT22;27057;51.438;-0.010;2023-11-21T05:01:54;11.10;99.90
41310;DHT22;27057;51.438;-0.010;2023-11-21T05:04:21;11.00;99.90
41310;DHT22;27057;51.438;-0.010;2023-11-21T05:06:50;10.90;99.90
41310;DHT22;27057;51.438;-0.010;2023-11-21T05:09:17;10.80;99.90
41310;DHT22;27057;51.438;-0.010;2023-11-21T05:11:45;10.70;99.90
41310;DHT22;27057;51.438;-0.010;2023-11-21T05:14:12;10.70;99.90
41310;DHT22;27057;51.438;-0.010;2023-11-21T05:16:41;10.70;99.90
41310;DHT22;27057;51.438;-0.010;2023-11-21T05:19:09;10.70;99.90
41310;DHT22;27057;51.438;-0.010;2023-11-21T05:21:37;10.60;99.90
41310;DHT22;27057;51.438;-0.010;2023-11-21T05:24:04;10.60;99.90
41310;DHT22;27057;51.438;-0.010;2023-11-21T05:26:32;10.70;99.90
41310;DHT22;27057;51.438;-0.010;2023-11-21T05:29:00;10.60;99.90
41310;DHT22;27057;51.438;-0.010;2023-11-21T05:31:27;10.60;99.90
41310;DHT22;27057;51.438;-0.010;2023-11-21T05:33:54;10.60;99.90
41310;DHT22;27057;51.438;-0.010;2023-11-21T05:36:22;10.60;99.90
41310;DHT22;27057;51.438;-0.010;2023-11-21T05:38:50;10.60;99.90
41310;DHT22;27057;51.438;-0.010;2023-11-21T05:41:17;10.60;99.90
41310;DHT22;27057;51.438;-0.010;2023-11-21T05:43:45;10.60;99.90
41310;DHT22;27057;51.438;-0.010;2023-11-21T05:46:12;10.50;99.90
41310;DHT22;27057;51.438;-0.010;2023-11-21T05:48:40;10.50;99.90
41310;DHT22;27057;51.438;-0.010;2023-11-21T05:51:09;10.60;99.90
41310;DHT22;27057;51.438;-0.010;2023-11-21T05:53:39;10.50;99.90
41310;DHT22;27057;51.438;-0.010;2023-11-21T05:56:07;10.60;99.90
41310;DHT22;27057;51.438;-0.010;2023-11-21T05:58:34;10.60;99.90
41310;DHT22;27057;51.438;-0.010;2023-11-21T06:01:05;10.60;99.90
41310;DHT22;27057;51.438;-0.010;2023-11-21T06:03:35;10.60;99.90
41310;DHT22;27057;51.438;-0.010;2023-11-21T06:06:03;10.60;99.90
41310;DHT22;27057;51.438;-0.010;2023-11-21T06:08:31;10.60;99.90
41310;DHT22;27057;51.438;-0.010;2023-11-21T06:10:58;10.60;99.90
41310;DHT22;27057;51.438;-0.010;2023-11-21T06:13:26;10.60;99.90
41310;DHT22;27057;51.438;-0.010;2023-11-21T06:15:55;10.60;99.90
41310;DHT22;27057;51.438;-0.010;2023-11-21T06:18:23;10.60;99.90
41310;DHT22;27057;51.438;-0.010;2023-11-21T06:20:51;10.60;99.90
41310;DHT22;27057;51.438;-0.010;2023-11-21T06:23:20;10.60;99.90
41310;DHT22;27057;51.438;-0.010;2023-11-21T06:25:47;10.60;99.90
41310;DHT22;27057;51.438;-0.010;2023-11-21T06:28:15;10.50;99.90
41310;DHT22;27057;51.438;-0.010;2023-11-21T06:30:45;10.50;99.90
41310;DHT22;27057;51.438;-0.010;2023-11-21T06:33:12;10.50;99.90
41310;DHT22;27057;51.438;-0.010;2023-11-21T06:35:40;10.50;99.90
41310;DHT22;27057;51.438;-0.010;2023-11-21T06:38:07;10.50;99.90
41310;DHT22;27057;51.438;-0.010;2023-11-21T06:40:36;10.50;99.90
41310;DHT22;27057;51.438;-0.010;2023-11-21T06:43:03;10.50;99.90
41310;DHT22;27057;51.438;-0.010;2023-11-21T06:45:33;10.50;99.90
41310;DHT22;27057;51.438;-0.010;2023-11-21T06:48:01;10.50;99.90
41310;DHT22;27057;51.438;-0.010;2023-11-21T06:50:29;10.50;99.90
41310;DHT22;27057;51.438;-0.010;2023-11-21T06:52:56;10.50;99.90
41310;DHT22;27057;51.438;-0.010;2023-11-21T06:55:24;10.50;99.90
41310;DHT22;27057;51.438;-0.010;2023-11-21T06:57:51;10.80;99.90
41310;DHT22;27057;51.438;-0.010;2023-11-21T07:00:19;10.40;99.90
41310;DHT22;27057;51.438;-0.010;2023-11-21T07:02:46;10.40;99.90
41310;DHT22;27057;51.438;-0.010;2023-11-21T07:05:14;10.30;99.90
41310;DHT22;27057;51.438;-0.010;2023-11-21T07:07:42;10.40;99.90
41310;DHT22;27057;51.438;-0.010;2023-11-21T07:10:10;10.30;99.90
41310;DHT22;27057;51.438;-0.010;2023-11-21T07:12:38;10.30;99.90
41310;DHT22;27057;51.438;-0.010;2023-11-21T07:15:06;10.30;99.90
41310;DHT22;27057;51.438;-0.010;2023-11-21T07:17:36;10.20;99.90
41310;DHT22;27057;51.438;-0.010;2023-11-21T07:20:08;10.20;99.90
41310;DHT22;27057;51.438;-0.010;2023-11-21T07:22:36;10.20;99.90
41310;DHT22;27057;51.438;-0.010;2023-11-21T07:25:03;10.10;99.90
41310;DHT22;27057;51.438;-0.010;2023-11-21T07:27:31;10.20;99.90
41310;DHT22;27057;51.438;-0.010;2023-11-21T07:30:01;10.10;99.90
41310;DHT22;27057;51.438;-0.010;2023-11-21T07:32:32;10.20;99.90
41310;DHT22;27057;51.438;-0.010;2023-11-21T07:34:59;10.00;99.90
41310;DHT22;27057;51.438;-0.010;2023-11-21T07:37:28;10.10;99.90
41310;DHT22;27057;51.438;-0.010;2023-11-21T07:39:56;10.10;99.90
41310;DHT22;27057;51.438;-0.010;2023-11-21T07:42:23;10.10;99.90
41310;DHT22;27057;51.438;-0.010;2023-11-21T07:44:53;10.10;99.90
41310;DHT22;27057;51.438;-0.010;2023-11-21T07:47:20;10.00;99.90
41310;DHT22;27057;51.438;-0.010;2023-11-21T07:49:48;10.60;99.90
41310;DHT22;27057;51.438;-0.010;2023-11-21T07:52:15;10.10;99.90
41310;DHT22;27057;51.438;-0.010;2023-11-21T07:54:43;11.70;99.90
41310;DHT22;27057;51.438;-0.010;2023-11-21T07:57:10;10.10;99.90
41310;DHT22;27057;51.438;-0.010;2023-11-21T07:59:41;10.30;99.90
41310;DHT22;27057;51.438;-0.010;2023-11-21T08:02:08;10.40;99.90
41310;DHT22;27057;51.438;-0.010;2023-11-21T08:04:36;9.70;99.90
41310;DHT22;27057;51.438;-0.010;2023-11-21T08:07:03;10.00;99.90
41310;DHT22;27057;51.438;-0.010;2023-11-21T08:09:31;10.10;99.90
41310;DHT22;27057;51.438;-0.010;2023-11-21T08:11:58;10.00;99.90
41310;DHT22;27057;51.438;-0.010;2023-11-21T08:14:27;10.10;99.90
41310;DHT22;27057;51.438;-0.010;2023-11-21T08:16:55;10.00;99.90
41310;DHT22;27057;51.438;-0.010;2023-11-21T08:19:25;10.10;99.90
41310;DHT22;27057;51.438;-0.010;2023-11-21T08:21:52;10.20;99.90
41310;DHT22;27057;51.438;-0.010;2023-11-21T08:24:22;10.00;99.90
41310;DHT22;27057;51.438;-0.010;2023-11-21T08:26:49;10.10;99.90
41310;DHT22;27057;51.438;-0.010;2023-11-21T08:29:18;10.10;99.90
41310;DHT22;27057;51.438;-0.010;2023-11-21T08:31:45;10.10;99.90
41310;DHT22;27057;51.438;-0.010;2023-11-21T08:34:14;9.90;99.90
41310;DHT22;27057;51.438;-0.010;2023-11-21T08:36:43;9.90;99.90
41310;DHT22;27057;51.438;-0.010;2023-11-21T08:39:10;10.20;99.90
41310;DHT22;27057;51.438;-0.010;2023-11-21T08:41:37;10.20;99.90
41310;DHT22;27057;51.438;-0.010;2023-11-21T08:44:05;10.20;99.90
41310;DHT22;27057;51.438;-0.010;2023-11-21T08:46:34;10.20;99.90
41310;DHT22;27057;51.438;-0.010;2023-11-21T08:49:04;10.20;99.90
41310;DHT22;27057;51.438;-0.010;2023-11-21T08:51:31;10.10;99.90
41310;DHT22;27057;51.438;-0.010;2023-11-21T08:53:58;10.20;99.90
41310;DHT22;27057;51.438;-0.010;2023-11-21T08:56:28;10.20;99.90
41310;DHT22;27057;51.438;-0.010;2023-11-21T08:58:55;10.60;99.90
41310;DHT22;27057;51.438;-0.010;2023-11-21T09:01:23;10.10;99.90
41310;DHT22;27057;51.438;-0.010;2023-11-21T09:03:52;10.00;99.90
41310;DHT22;27057;51.438;-0.010;2023-11-21T09:06:19;10.20;99.90
41310;DHT22;27057;51.438;-0.010;2023-11-21T09:08:46;10.20;99.90
41310;DHT22;27057;51.438;-0.010;2023-11-21T09:11:14;10.10;99.90
41310;DHT22;27057;51.438;-0.010;2023-11-21T09:13:42;10.10;99.90
41310;DHT22;27057;51.438;-0.010;2023-11-21T09:16:09;10.10;99.90
41310;DHT22;27057;51.438;-0.010;2023-11-21T09:18:38;10.10;99.90
41310;DHT22;27057;51.438;-0.010;2023-11-21T09:21:05;10.10;99.90
41310;DHT22;27057;51.438;-0.010;2023-11-21T09:23:32;10.20;99.90
41310;DHT22;27057;51.438;-0.010;2023-11-21T09:26:00;10.20;99.90
41310;DHT22;27057;51.438;-0.010;2023-11-21T09:28:28;10.70;99.90
41310;DHT22;27057;51.438;-0.010;2023-11-21T09:30:55;10.20;99.90
41310;DHT22;27057;51.438;-0.010;2023-11-21T09:33:23;10.30;99.90
41310;DHT22;27057;51.438;-0.010;2023-11-21T09:35:52;10.10;99.90
41310;DHT22;27057;51.438;-0.010;2023-11-21T09:38:20;10.40;99.90
41310;DHT22;27057;51.438;-0.010;2023-11-21T09:40:47;10.40;99.90
41310;DHT22;27057;51.438;-0.010;2023-11-21T09:43:18;10.30;99.90
41310;DHT22;27057;51.438;-0.010;2023-11-21T09:45:47;10.40;99.90
41310;DHT22;27057;51.438;-0.010;2023-11-21T09:48:15;10.50;99.90
41310;DHT22;27057;51.438;-0.010;2023-11-21T09:50:44;10.50;99.90
41310;DHT22;27057;51.438;-0.010;2023-11-21T09:53:20;10.40;99.90
41310;DHT22;27057;51.438;-0.010;2023-11-21T09:55:51;10.40;99.90
41310;DHT22;27057;51.438;-0.010;2023-11-21T09:58:20;10.40;99.90
41310;DHT22;27057;51.438;-0.010;2023-11-21T10:00:55;10.50;99.90
41310;DHT22;27057;51.438;-0.010;2023-11-21T10:03:24;11.80;99.90
41310;DHT22;27057;51.438;-0.010;2023-11-21T10:05:53;10.50;99.90
41310;DHT22;27057;51.438;-0.010;2023-11-21T10:08:24;10.60;99.90
41310;DHT22;27057;51.438;-0.010;2023-11-21T10:11:14;10.00;99.90
41310;DHT22;27057;51.438;-0.010;2023-11-21T10:13:44;11.30;99.90
41310;DHT22;27057;51.438;-0.010;2023-11-21T10:16:16;10.50;99.90
41310;DHT22;27057;51.438;-0.010;2023-11-21T10:18:45;10.60;99.90
41310;DHT22;27057;51.438;-0.010;2023-11-21T10:21:14;10.60;99.90
41310;DHT22;27057;51.438;-0.010;2023-11-21T10:23:41;10.60;99.90
41310;DHT22;27057;51.438;-0.010;2023-11-21T10:26:12;10.80;99.90
41310;DHT22;27057;51.438;-0.010;2023-11-21T10:28:58;11.10;99.90
41310;DHT22;27057;51.438;-0.010;2023-11-21T10:31:30;10.80;99.90
41310;DHT22;27057;51.438;-0.010;2023-11-21T10:34:20;11.10;99.90
41310;DHT22;27057;51.438;-0.010;2023-11-21T10:36:47;11.10;99.90
41310;DHT22;27057;51.438;-0.010;2023-11-21T10:39:19;11.00;99.90
41310;DHT22;27057;51.438;-0.010;2023-11-21T10:41:48;11.10;99.90
41310;DHT22;27057;51.438;-0.010;2023-11-21T10:44:17;11.10;99.90
41310;DHT22;27057;51.438;-0.010;2023-11-21T10:46:53;11.20;99.90
41310;DHT22;27057;51.438;-0.010;2023-11-21T10:49:27;11.20;99.90
41310;DHT22;27057;51.438;-0.010;2023-11-21T10:51:55;11.20;99.90
41310;DHT22;27057;51.438;-0.010;2023-11-21T10:54:25;11.90;99.90
41310;DHT22;27057;51.438;-0.010;2023-11-21T10:57:00;11.30;99.90
41310;DHT22;27057;51.438;-0.010;2023-11-21T10:59:29;11.30;99.90
41310;DHT22;27057;51.438;-0.010;2023-11-21T11:02:00;11.70;99.90
41310;DHT22;27057;51.438;-0.010;2023-11-21T11:04:30;12.10;99.90
41310;DHT22;27057;51.438;-0.010;2023-11-21T11:07:02;11.40;99.90
41310;DHT22;27057;51.438;-0.010;2023-11-21T11:09:32;11.40;99.90
41310;DHT22;27057;51.438;-0.010;2023-11-21T11:12:04;11.50;99.90
41310;DHT22;27057;51.438;-0.010;2023-11-21T11:14:33;11.50;99.90
41310;DHT22;27057;51.438;-0.010;2023-11-21T11:17:02;11.70;99.90
41310;DHT22;27057;51.438;-0.010;2023-11-21T11:19:31;11.40;99.90
41310;DHT22;27057;51.438;-0.010;2023-11-21T11:28:03;11.50;99.90
41310;DHT22;27057;51.438;-0.010;2023-11-21T11:38:24;11.80;99.90
41310;DHT22;27057;51.438;-0.010;2023-11-21T11:40:54;11.70;99.90
41310;DHT22;27057;51.438;-0.010;2023-11-21T11:43:28;11.90;99.90
41310;DHT22;27057;51.438;-0.010;2023-11-21T11:45:57;11.90;99.90
41310;DHT22;27057;51.438;-0.010;2023-11-21T11:48:26;11.90;99.90
41310;DHT22;27057;51.438;-0.010;2023-11-21T11:51:09;12.00;99.90
41310;DHT22;27057;51.438;-0.010;2023-11-21T11:53:44;11.90;99.90
41310;DHT22;27057;51.438;-0.010;2023-11-21T11:56:26;11.80;99.90
41310;DHT22;27057;51.438;-0.010;2023-11-21T11:58:56;11.90;99.90
41310;DHT22;27057;51.438;-0.010;2023-11-21T12:01:26;11.90;99.90
41310;DHT22;27057;51.438;-0.010;2023-11-21T12:06:44;11.90;99.90
41310;DHT22;27057;51.438;-0.010;2023-11-21T12:09:24;11.80;99.90
41310;DHT22;27057;51.438;-0.010;2023-11-21T12:11:51;12.10;99.90
41310;DHT22;27057;51.438;-0.010;2023-11-21T12:14:19;11.80;99.90
41310;DHT22;27057;51.438;-0.010;2023-11-21T12:16:47;11.90;99.90
41310;DHT22;27057;51.438;-0.010;2023-11-21T12:19:15;11.90;99.90
41310;DHT22;27057;51.438;-0.010;2023-11-21T12:21:43;12.00;99.90
41310;DHT22;27057;51.438;-0.010;2023-11-21T12:24:11;12.20;99.90
41310;DHT22;27057;51.438;-0.010;2023-11-21T12:26:42;12.30;99.90
41310;DHT22;27057;51.438;-0.010;2023-11-21T12:29:10;12.10;99.90
41310;DHT22;27057;51.438;-0.010;2023-11-21T12:31:38;12.10;99.90
41310;DHT22;27057;51.438;-0.010;2023-11-21T12:34:06;12.10;99.90
41310;DHT22;27057;51.438;-0.010;2023-11-21T12:36:34;12.20;99.90
41310;DHT22;27057;51.438;-0.010;2023-11-21T12:39:02;12.20;99.90
41310;DHT22;27057;51.438;-0.010;2023-11-21T12:41:30;12.10;99.90
41310;DHT22;27057;51.438;-0.010;2023-11-21T12:43:58;12.00;99.90
41310;DHT22;27057;51.438;-0.010;2023-11-21T12:46:26;12.10;99.90
41310;DHT22;27057;51.438;-0.010;2023-11-21T12:48:57;12.50;99.90
41310;DHT22;27057;51.438;-0.010;2023-11-21T12:51:25;11.90;99.90
41310;DHT22;27057;51.438;-0.010;2023-11-21T12:53:52;12.00;99.90
41310;DHT22;27057;51.438;-0.010;2023-11-21T12:56:22;12.00;99.90
41310;DHT22;27057;51.438;-0.010;2023-11-21T12:58:54;11.80;99.90
41310;DHT22;27057;51.438;-0.010;2023-11-21T13:01:25;12.00;99.90
41310;DHT22;27057;51.438;-0.010;2023-11-21T13:03:57;12.10;99.90
41310;DHT22;27057;51.438;-0.010;2023-11-21T13:06:25;12.10;99.90
41310;DHT22;27057;51.438;-0.010;2023-11-21T13:08:54;12.10;99.90
41310;DHT22;27057;51.438;-0.010;2023-11-21T13:11:24;12.20;99.90
41310;DHT22;27057;51.438;-0.010;2023-11-21T13:13:54;12.20;99.90
41310;DHT22;27057;51.438;-0.010;2023-11-21T13:16:23;12.00;99.90
41310;DHT22;27057;51.438;-0.010;2023-11-21T13:18:51;12.00;99.90
41310;DHT22;27057;51.438;-0.010;2023-11-21T13:21:18;12.20;99.90
41310;DHT22;27057;51.438;-0.010;2023-11-21T13:23:45;13.00;99.90
41310;DHT22;27057;51.438;-0.010;2023-11-21T13:26:15;12.00;99.90
41310;DHT22;27057;51.438;-0.010;2023-11-21T13:28:43;12.30;99.90
41310;DHT22;27057;51.438;-0.010;2023-11-21T13:31:14;12.70;99.90
41310;DHT22;27057;51.438;-0.010;2023-11-21T13:33:50;12.20;99.90
41310;DHT22;27057;51.438;-0.010;2023-11-21T13:36:26;12.30;99.90
41310;DHT22;27057;51.438;-0.010;2023-11-21T13:38:58;12.30;99.90
41310;DHT22;27057;51.438;-0.010;2023-11-21T13:41:26;12.30;99.90
41310;DHT22;27057;51.438;-0.010;2023-11-21T13:43:59;12.30;99.90
41310;DHT22;27057;51.438;-0.010;2023-11-21T13:46:45;12.20;99.90
41310;DHT22;27057;51.438;-0.010;2023-11-21T13:49:14;12.30;99.90
41310;DHT22;27057;51.438;-0.010;2023-11-21T13:54:12;12.40;99.90
41310;DHT22;27057;51.438;-0.010;2023-11-21T13:56:41;12.80;99.90
41310;DHT22;27057;51.438;-0.010;2023-11-21T13:59:12;12.00;99.90
41310;DHT22;27057;51.438;-0.010;2023-11-21T14:01:52;12.10;99.90
41310;DHT22;27057;51.438;-0.010;2023-11-21T14:04:43;11.90;99.90
41310;DHT22;27057;51.438;-0.010;2023-11-21T14:07:16;11.90;99.90
41310;DHT22;27057;51.438;-0.010;2023-11-21T14:09:59;12.00;99.90
41310;DHT22;27057;51.438;-0.010;2023-11-21T14:12:26;11.70;99.90
41310;DHT22;27057;51.438;-0.010;2023-11-21T14:14:54;12.00;99.90
41310;DHT22;27057;51.438;-0.010;2023-11-21T14:17:22;12.00;99.90
41310;DHT22;27057;51.438;-0.010;2023-11-21T14:19:51;11.90;99.90
41310;DHT22;27057;51.438;-0.010;2023-11-21T14:22:19;11.80;99.90
41310;DHT22;27057;51.438;-0.010;2023-11-21T14:24:47;12.00;99.90
41310;DHT22;27057;51.438;-0.010;2023-11-21T14:27:17;11.60;99.90
41310;DHT22;27057;51.438;-0.010;2023-11-21T14:29:44;11.70;99.90
41310;DHT22;27057;51.438;-0.010;2023-11-21T14:32:13;11.50;99.90
41310;DHT22;27057;51.438;-0.010;2023-11-21T14:34:42;11.60;99.90
41310;DHT22;27057;51.438;-0.010;2023-11-21T14:37:13;11.40;99.90
41310;DHT22;27057;51.438;-0.010;2023-11-21T14:39:41;11.40;99.90
41310;DHT22;27057;51.438;-0.010;2023-11-21T14:42:12;11.60;99.90
41310;DHT22;27057;51.438;-0.010;2023-11-21T14:44:42;11.30;99.90
41310;DHT22;27057;51.438;-0.010;2023-11-21T14:47:10;11.50;99.90
41310;DHT22;27057;51.438;-0.010;2023-11-21T14:49:43;12.30;99.90
41310;DHT22;27057;51.438;-0.010;2023-11-21T14:52:21;11.50;99.90
41310;DHT22;27057;51.438;-0.010;2023-11-21T14:55:03;11.30;99.90
41310;DHT22;27057;51.438;-0.010;2023-11-21T14:57:49;11.50;99.90
41310;DHT22;27057;51.438;-0.010;2023-11-21T15:00:18;11.50;99.90
41310;DHT22;27057;51.438;-0.010;2023-11-21T15:03:01;11.40;99.90
41310;DHT22;27057;51.438;-0.010;2023-11-21T15:05:30;11.50;99.90
41310;DHT22;27057;51.438;-0.010;2023-11-21T15:07:57;11.60;99.90
41310;DHT22;27057;51.438;-0.010;2023-11-21T15:10:38;11.50;99.90
41310;DHT22;27057;51.438;-0.010;2023-11-21T15:13:14;11.40;99.90
41310;DHT22;27057;51.438;-0.010;2023-11-21T15:15:42;11.50;99.90
41310;DHT22;27057;51.438;-0.010;2023-11-21T15:18:11;11.40;99.90
41310;DHT22;27057;51.438;-0.010;2023-11-21T15:20:41;11.40;99.90
41310;DHT22;27057;51.438;-0.010;2023-11-21T15:23:11;11.20;99.90
41310;DHT22;27057;51.438;-0.010;2023-11-21T15:25:40;11.20;99.90
41310;DHT22;27057;51.438;-0.010;2023-11-21T15:28:07;11.20;99.90
41310;DHT22;27057;51.438;-0.010;2023-11-21T15:30:35;11.20;99.90
41310;DHT22;27057;51.438;-0.010;2023-11-21T15:33:03;11.70;99.90
41310;DHT22;27057;51.438;-0.010;2023-11-21T15:35:31;11.10;99.90
41310;DHT22;27057;51.438;-0.010;2023-11-21T15:38:00;11.20;99.90
41310;DHT22;27057;51.438;-0.010;2023-11-21T15:40:27;11.50;99.90
41310;DHT22;27057;51.438;-0.010;2023-11-21T15:42:55;11.10;99.90
41310;DHT22;27057;51.438;-0.010;2023-11-21T15:45:22;11.40;99.90